createdAt,value
2018-12-17T00:00:38.313Z,4.60
2018-12-17T00:03:06.369Z,4.70
2018-12-17T00:05:34.542Z,4.70
2018-12-17T00:08:02.615Z,4.70
2018-12-17T00:10:30.706Z,4.70
2018-12-17T00:12:58.799Z,4.70
2018-12-17T00:15:26.913Z,4.70
2018-12-17T00:17:54.992Z,4.70
2018-12-17T00:20:23.049Z,4.70
2018-12-17T00:22:51.140Z,4.70
2018-12-17T00:25:19.214Z,4.80
2018-12-17T00:27:47.306Z,4.80
2018-12-17T00:30:15.395Z,4.80
2018-12-17T00:32:43.490Z,4.80
2018-12-17T00:35:11.576Z,4.90
2018-12-17T00:37:39.662Z,4.90
2018-12-17T00:40:08.565Z,4.90
2018-12-17T00:42:36.671Z,4.90
2018-12-17T00:45:05.618Z,4.90
2018-12-17T00:47:33.698Z,4.90
2018-12-17T00:50:01.817Z,5.00
2018-12-17T00:52:30.009Z,4.80
2018-12-17T00:54:58.111Z,4.80
2018-12-17T00:57:26.176Z,4.80
2018-12-17T00:59:54.370Z,4.80
2018-12-17T01:02:22.437Z,4.90
2018-12-17T01:04:50.509Z,4.80
2018-12-17T01:07:20.569Z,4.70
2018-12-17T01:09:48.640Z,4.70
2018-12-17T01:12:16.737Z,4.70
2018-12-17T01:14:44.809Z,4.80
2018-12-17T01:17:12.912Z,4.80
2018-12-17T01:19:40.974Z,4.80
2018-12-17T01:22:09.081Z,4.80
2018-12-17T01:24:37.151Z,4.80
2018-12-17T01:27:05.206Z,4.80
2018-12-17T01:29:33.309Z,4.90
2018-12-17T01:32:01.344Z,4.90
2018-12-17T01:34:29.490Z,5.00
2018-12-17T01:36:57.562Z,5.00
2018-12-17T01:39:25.650Z,5.00
2018-12-17T01:41:53.714Z,5.00
2018-12-17T01:44:21.822Z,5.10
2018-12-17T01:46:50.108Z,5.10
2018-12-17T01:49:18.207Z,5.00
2018-12-17T01:51:46.299Z,5.00
2018-12-17T01:54:14.386Z,5.00
2018-12-17T01:56:42.518Z,5.00
2018-12-17T01:59:10.623Z,5.00
2018-12-17T02:01:38.757Z,5.10
2018-12-17T02:04:06.828Z,5.10
2018-12-17T02:06:34.902Z,5.10
2018-12-17T02:09:03.746Z,5.10
2018-12-17T02:11:31.810Z,5.10
2018-12-17T02:13:59.917Z,5.10
2018-12-17T02:16:27.983Z,5.10
2018-12-17T02:18:56.061Z,5.10
2018-12-17T02:21:24.186Z,5.00
2018-12-17T02:23:52.434Z,4.90
2018-12-17T02:26:20.521Z,4.90
2018-12-17T02:28:48.595Z,4.80
2018-12-17T02:31:16.770Z,4.80
2018-12-17T02:33:44.850Z,4.80
2018-12-17T02:36:13.025Z,4.90
2018-12-17T02:38:41.116Z,4.90
2018-12-17T02:41:09.199Z,4.90
2018-12-17T02:43:37.280Z,4.90
2018-12-17T02:46:05.355Z,4.90
2018-12-17T02:48:33.467Z,4.90
2018-12-17T02:51:01.537Z,4.90
2018-12-17T02:53:29.681Z,4.90
2018-12-17T02:55:57.790Z,4.90
2018-12-17T02:58:25.871Z,5.00
2018-12-17T03:00:53.970Z,4.90
2018-12-17T03:03:22.062Z,5.00
2018-12-17T03:05:50.125Z,5.00
2018-12-17T03:08:18.210Z,5.00
2018-12-17T03:10:46.299Z,5.10
2018-12-17T03:13:14.405Z,5.10
2018-12-17T03:15:42.469Z,5.10
2018-12-17T03:18:10.552Z,5.10
2018-12-17T03:20:38.647Z,5.10
2018-12-17T03:23:06.723Z,5.10
2018-12-17T03:25:34.806Z,5.10
2018-12-17T03:28:02.920Z,5.10
2018-12-17T03:30:30.985Z,5.00
2018-12-17T03:32:59.506Z,5.00
2018-12-17T03:35:27.715Z,5.00
2018-12-17T03:37:55.772Z,5.00
2018-12-17T03:40:23.865Z,4.90
2018-12-17T03:42:52.405Z,4.80
2018-12-17T03:45:20.477Z,4.70
2018-12-17T03:47:48.580Z,4.70
2018-12-17T03:50:16.643Z,4.70
2018-12-17T03:52:44.742Z,4.70
2018-12-17T03:55:12.816Z,4.60
2018-12-17T03:57:40.910Z,4.60
2018-12-17T04:00:09.650Z,4.70
2018-12-17T04:02:38.622Z,4.70
2018-12-17T04:05:06.860Z,4.70
2018-12-17T04:07:34.951Z,4.70
2018-12-17T04:10:03.637Z,4.70
2018-12-17T04:12:31.729Z,4.70
2018-12-17T04:14:59.807Z,4.70
2018-12-17T04:17:27.879Z,4.70
2018-12-17T04:19:56.038Z,4.60
2018-12-17T04:22:24.066Z,4.60
2018-12-17T04:24:52.158Z,4.60
2018-12-17T04:27:20.235Z,4.60
2018-12-17T04:29:48.344Z,4.50
2018-12-17T04:32:16.426Z,4.50
2018-12-17T04:34:44.507Z,4.60
2018-12-17T04:37:12.601Z,4.50
2018-12-17T04:39:40.670Z,4.50
2018-12-17T04:42:08.766Z,4.50
2018-12-17T04:44:36.835Z,4.50
2018-12-17T04:47:04.919Z,4.60
2018-12-17T04:49:32.998Z,4.60
2018-12-17T04:52:01.088Z,4.60
2018-12-17T04:54:29.411Z,4.50
2018-12-17T04:56:57.473Z,4.50
2018-12-17T04:59:25.569Z,4.60
2018-12-17T05:01:53.631Z,4.60
2018-12-17T05:04:21.822Z,4.60
2018-12-17T05:06:50.134Z,4.60
2018-12-17T05:09:18.148Z,4.70
2018-12-17T05:11:46.260Z,4.70
2018-12-17T05:14:14.362Z,4.70
2018-12-17T05:16:42.474Z,4.70
2018-12-17T05:19:10.547Z,4.70
2018-12-17T05:21:38.608Z,4.80
2018-12-17T05:24:06.685Z,4.80
2018-12-17T05:26:34.780Z,4.80
2018-12-17T05:29:02.867Z,4.80
2018-12-17T05:31:30.980Z,4.80
2018-12-17T05:33:59.054Z,4.90
2018-12-17T05:36:27.144Z,4.90
2018-12-17T05:38:55.214Z,4.90
2018-12-17T05:41:23.302Z,4.90
2018-12-17T05:43:51.390Z,4.90
2018-12-17T05:46:19.469Z,4.90
2018-12-17T05:48:47.545Z,5.00
2018-12-17T05:51:15.614Z,4.90
2018-12-17T05:53:43.698Z,4.90
2018-12-17T05:56:11.772Z,4.80
2018-12-17T05:58:39.851Z,4.80
2018-12-17T06:01:07.939Z,4.90
2018-12-17T06:03:36.199Z,4.90
2018-12-17T06:06:04.415Z,4.90
2018-12-17T06:08:32.507Z,4.90
2018-12-17T06:11:00.586Z,4.90
2018-12-17T06:13:28.691Z,4.90
2018-12-17T06:15:56.786Z,4.90
2018-12-17T06:18:24.855Z,4.90
2018-12-17T06:20:53.116Z,4.90
2018-12-17T06:23:21.204Z,4.90
2018-12-17T06:25:49.393Z,4.80
2018-12-17T06:28:17.466Z,4.90
2018-12-17T06:30:45.544Z,4.90
2018-12-17T06:33:15.826Z,4.90
2018-12-17T06:35:43.664Z,4.80
2018-12-17T06:38:11.718Z,4.80
2018-12-17T06:40:39.921Z,4.70
2018-12-17T06:43:08.157Z,4.80
2018-12-17T06:45:36.240Z,4.80
2018-12-17T06:48:04.724Z,4.90
2018-12-17T06:50:33.148Z,4.90
2018-12-17T06:53:01.512Z,5.00
2018-12-17T06:55:29.624Z,5.00
2018-12-17T06:57:57.881Z,5.10
2018-12-17T07:00:25.942Z,5.10
2018-12-17T07:02:53.997Z,5.10
2018-12-17T07:05:22.083Z,5.10
2018-12-17T07:07:50.195Z,5.10
2018-12-17T07:10:18.271Z,5.10
2018-12-17T07:12:46.345Z,5.10
2018-12-17T07:15:14.403Z,5.20
2018-12-17T07:17:42.480Z,5.20
2018-12-17T07:20:10.556Z,5.20
2018-12-17T07:22:38.643Z,5.20
2018-12-17T07:25:06.719Z,5.20
2018-12-17T07:27:34.791Z,5.30
2018-12-17T07:30:03.388Z,5.40
2018-12-17T07:32:31.456Z,5.40
2018-12-17T07:34:59.608Z,5.40
2018-12-17T07:37:28.000Z,5.30
2018-12-17T07:39:56.090Z,5.30
2018-12-17T07:42:24.147Z,5.20
2018-12-17T07:44:52.215Z,5.20
2018-12-17T07:47:20.330Z,5.10
2018-12-17T07:49:48.400Z,5.10
2018-12-17T07:52:16.454Z,5.20
2018-12-17T07:54:44.550Z,5.20
2018-12-17T07:57:12.647Z,5.30
2018-12-17T07:59:40.731Z,5.30
2018-12-17T08:02:08.802Z,5.30
2018-12-17T08:04:36.897Z,5.30
2018-12-17T08:07:04.964Z,5.30
2018-12-17T08:09:33.032Z,5.30
2018-12-17T08:12:01.100Z,5.40
2018-12-17T08:14:29.184Z,5.50
2018-12-17T08:16:57.348Z,5.40
2018-12-17T08:19:25.433Z,5.40
2018-12-17T08:21:53.587Z,5.40
2018-12-17T08:24:21.674Z,5.40
2018-12-17T08:26:50.298Z,5.40
2018-12-17T08:29:18.438Z,5.40
2018-12-17T08:31:46.494Z,5.40
2018-12-17T08:34:14.654Z,5.40
2018-12-17T08:36:42.729Z,5.40
2018-12-17T08:39:10.812Z,5.40
2018-12-17T08:41:38.893Z,5.50
2018-12-17T08:44:06.985Z,5.60
2018-12-17T08:46:35.041Z,5.60
2018-12-17T08:49:03.206Z,5.60
2018-12-17T08:51:31.246Z,5.60
2018-12-17T08:53:59.341Z,5.60
2018-12-17T08:56:29.011Z,5.60
2018-12-17T08:58:57.063Z,5.60
2018-12-17T09:01:25.161Z,5.70
2018-12-17T09:03:53.238Z,5.60
2018-12-17T09:06:21.326Z,5.70
2018-12-17T09:08:49.390Z,5.60
2018-12-17T09:11:17.477Z,5.50
2018-12-17T09:13:45.627Z,5.50
2018-12-17T09:16:13.708Z,5.50
2018-12-17T09:18:41.780Z,5.50
2018-12-17T09:21:10.692Z,5.60
2018-12-17T09:23:38.907Z,5.50
2018-12-17T09:26:06.971Z,5.60
2018-12-17T09:28:35.103Z,5.70
2018-12-17T09:31:03.168Z,5.60
2018-12-17T09:33:31.223Z,5.70
2018-12-17T09:35:59.330Z,5.80
2018-12-17T09:38:27.512Z,5.80
2018-12-17T09:40:55.567Z,5.80
2018-12-17T09:43:23.679Z,5.80
2018-12-17T09:45:51.754Z,5.90
2018-12-17T09:48:19.849Z,6.00
2018-12-17T09:50:47.894Z,6.00
2018-12-17T09:53:15.998Z,6.10
2018-12-17T09:55:44.087Z,6.10
2018-12-17T09:58:12.138Z,6.20
2018-12-17T10:00:40.220Z,6.20
2018-12-17T10:03:08.287Z,6.20
2018-12-17T10:05:36.378Z,6.10
2018-12-17T10:08:04.453Z,6.10
2018-12-17T10:10:32.558Z,6.10
2018-12-17T10:13:00.637Z,6.20
2018-12-17T10:15:28.703Z,6.30
2018-12-17T10:17:56.825Z,6.30
2018-12-17T10:20:24.894Z,6.30
2018-12-17T10:22:52.983Z,6.30
2018-12-17T10:25:21.130Z,6.30
2018-12-17T10:27:49.275Z,6.20
2018-12-17T10:30:17.342Z,6.20
2018-12-17T10:32:45.403Z,6.20
2018-12-17T10:35:13.482Z,6.30
2018-12-17T10:37:41.543Z,6.20
2018-12-17T10:40:09.782Z,6.20
2018-12-17T10:42:37.870Z,6.20
2018-12-17T10:45:07.368Z,6.20
2018-12-17T10:47:35.493Z,6.30
2018-12-17T10:50:05.132Z,6.40
2018-12-17T10:52:33.268Z,6.40
2018-12-17T10:55:01.388Z,6.40
2018-12-17T10:57:29.555Z,6.50
2018-12-17T10:59:57.635Z,6.60
2018-12-17T11:02:27.685Z,6.70
2018-12-17T11:04:57.742Z,6.80
2018-12-17T11:07:25.818Z,7.00
2018-12-17T11:09:53.910Z,7.00
2018-12-17T11:12:21.984Z,7.00
2018-12-17T11:14:50.127Z,7.00
2018-12-17T11:17:18.213Z,7.10
2018-12-17T11:19:46.288Z,7.00
2018-12-17T11:22:14.359Z,7.10
2018-12-17T11:24:42.407Z,7.00
2018-12-17T11:27:10.512Z,6.90
2018-12-17T11:29:38.613Z,7.00
2018-12-17T11:32:11.602Z,7.10
2018-12-17T11:34:36.767Z,7.20
2018-12-17T11:37:04.853Z,7.20
2018-12-17T11:39:32.924Z,7.10
2018-12-17T11:42:01.037Z,7.00
2018-12-17T11:44:29.078Z,6.90
2018-12-17T11:46:57.161Z,6.90
2018-12-17T11:49:25.265Z,6.80
2018-12-17T11:51:53.438Z,6.70
2018-12-17T11:54:21.517Z,6.70
2018-12-17T11:59:50.453Z,6.80
2018-12-17T12:02:18.523Z,6.80
2018-12-17T12:04:46.621Z,6.70
2018-12-17T12:07:14.696Z,6.70
2018-12-17T12:09:42.795Z,6.70
2018-12-17T12:12:10.887Z,6.70
2018-12-17T12:14:38.990Z,6.80
2018-12-17T12:17:07.063Z,6.80
2018-12-17T12:19:35.170Z,6.90
2018-12-17T12:22:03.320Z,6.90
2018-12-17T12:24:31.387Z,6.90
2018-12-17T12:26:59.500Z,6.90
2018-12-17T12:29:27.565Z,6.80
2018-12-17T12:31:55.715Z,6.80
2018-12-17T12:34:23.791Z,6.80
2018-12-17T12:36:51.929Z,6.90
2018-12-17T12:39:20.007Z,6.90
2018-12-17T12:41:48.114Z,7.00
2018-12-17T12:44:16.211Z,7.00
2018-12-17T12:46:44.304Z,7.00
2018-12-17T12:49:12.430Z,7.10
2018-12-17T12:51:40.491Z,7.00
2018-12-17T12:54:08.579Z,7.10
2018-12-17T12:56:36.668Z,7.00
2018-12-17T12:59:04.734Z,7.10
2018-12-17T13:01:32.834Z,7.10
2018-12-17T13:04:00.916Z,7.20
2018-12-17T13:06:28.989Z,7.20
2018-12-17T13:08:57.093Z,7.30
2018-12-17T13:11:25.207Z,7.30
2018-12-17T13:13:53.303Z,7.30
2018-12-17T13:16:21.407Z,7.30
2018-12-17T13:18:49.491Z,7.30
2018-12-17T13:21:17.630Z,7.20
2018-12-17T13:23:45.709Z,7.10
2018-12-17T13:26:13.819Z,7.00
2018-12-17T13:28:41.870Z,7.00
2018-12-17T13:31:14.668Z,7.00
2018-12-17T13:33:40.009Z,7.00
2018-12-17T13:36:08.086Z,7.00
2018-12-17T13:38:36.182Z,7.00
2018-12-17T13:41:04.758Z,7.00
2018-12-17T13:43:32.853Z,6.90
2018-12-17T13:46:00.911Z,7.00
2018-12-17T13:48:28.987Z,7.00
2018-12-17T13:50:59.058Z,6.90
2018-12-17T13:53:32.238Z,6.90
2018-12-17T13:56:00.434Z,6.90
2018-12-17T13:58:28.522Z,6.90
2018-12-17T14:00:56.592Z,6.90
2018-12-17T14:03:24.686Z,6.80
2018-12-17T14:05:52.767Z,6.80
2018-12-17T14:08:20.855Z,6.70
2018-12-17T14:10:53.725Z,6.60
2018-12-17T14:13:21.819Z,6.60
2018-12-17T14:15:51.424Z,6.60
2018-12-17T14:18:26.013Z,6.60
2018-12-17T14:20:59.807Z,6.60
2018-12-17T14:23:27.916Z,6.60
2018-12-17T14:25:56.006Z,6.60
2018-12-17T14:28:24.134Z,6.50
2018-12-17T14:30:52.287Z,6.50
2018-12-17T14:33:20.363Z,6.40
2018-12-17T14:35:54.266Z,6.40
2018-12-17T14:38:22.329Z,6.40
2018-12-17T14:40:50.413Z,6.40
2018-12-17T14:43:18.504Z,6.40
2018-12-17T14:45:46.576Z,6.40
2018-12-17T14:48:14.666Z,6.40
2018-12-17T14:50:42.771Z,6.40
2018-12-17T14:53:10.902Z,6.40
2018-12-17T14:55:38.999Z,6.40
2018-12-17T14:58:07.103Z,6.30
2018-12-17T15:00:35.191Z,6.30
2018-12-17T15:03:03.287Z,6.30
2018-12-17T15:05:31.446Z,6.40
2018-12-17T15:07:59.551Z,6.30
2018-12-17T15:10:27.693Z,6.40
2018-12-17T15:12:55.783Z,6.40
2018-12-17T15:15:23.878Z,6.40
2018-12-17T15:17:52.930Z,6.40
2018-12-17T15:20:21.019Z,6.50
2018-12-17T15:22:49.080Z,6.60
2018-12-17T15:25:17.210Z,6.70
2018-12-17T15:27:45.477Z,6.70
2018-12-17T15:30:13.646Z,6.80
2018-12-17T15:32:41.805Z,6.80
2018-12-17T15:35:09.883Z,6.90
2018-12-17T15:37:37.968Z,7.00
2018-12-17T15:40:06.225Z,7.10
2018-12-17T15:42:40.625Z,7.10
2018-12-17T15:45:05.169Z,7.20
2018-12-17T15:47:33.233Z,7.30
2018-12-17T15:50:01.328Z,7.40
2018-12-17T15:52:29.406Z,7.40
2018-12-17T15:54:57.497Z,7.40
2018-12-17T15:57:25.601Z,7.20
2018-12-17T15:59:53.710Z,7.20
2018-12-17T16:02:21.792Z,7.20
2018-12-17T16:04:49.876Z,7.20
2018-12-17T16:07:18.002Z,7.10
2018-12-17T16:09:46.164Z,7.10
2018-12-17T16:12:14.280Z,7.20
2018-12-17T16:14:42.387Z,7.20
2018-12-17T16:17:10.523Z,7.10
2018-12-17T16:19:38.600Z,7.10
2018-12-17T16:22:06.670Z,7.00
2018-12-17T16:24:34.767Z,7.00
2018-12-17T16:27:03.025Z,7.00
2018-12-17T16:29:31.134Z,7.10
2018-12-17T16:31:59.191Z,7.10
2018-12-17T16:34:27.316Z,7.10
2018-12-17T16:36:55.709Z,7.20
2018-12-17T16:39:23.802Z,7.10
2018-12-17T16:41:51.894Z,7.10
2018-12-17T16:44:19.973Z,7.00
2018-12-17T16:46:48.076Z,7.00
2018-12-17T16:49:16.171Z,7.00
2018-12-17T16:51:44.281Z,7.00
2018-12-17T16:54:12.422Z,7.00
2018-12-17T16:56:40.509Z,7.00
2018-12-17T16:59:08.601Z,7.00
2018-12-17T17:01:36.705Z,7.10
2018-12-17T17:04:04.824Z,7.10
2018-12-17T17:06:32.936Z,7.20
2018-12-17T17:09:01.047Z,7.30
2018-12-17T17:11:29.144Z,7.30
2018-12-17T17:13:57.250Z,7.30
2018-12-17T17:16:25.364Z,7.30
2018-12-17T17:18:53.433Z,7.30
2018-12-17T17:21:21.587Z,7.30
2018-12-17T17:23:49.715Z,7.30
2018-12-17T17:26:17.804Z,7.30
2018-12-17T17:28:46.220Z,7.30
2018-12-17T17:31:14.400Z,7.30
2018-12-17T17:33:42.489Z,7.20
2018-12-17T17:36:10.586Z,7.20
2018-12-17T17:38:39.081Z,7.20
2018-12-17T17:41:07.181Z,7.20
2018-12-17T17:43:35.301Z,7.30
2018-12-17T17:46:03.402Z,7.30
2018-12-17T17:48:31.515Z,7.40
2018-12-17T17:51:00.565Z,7.50
2018-12-17T17:53:28.688Z,7.50
2018-12-17T17:55:56.801Z,7.50
2018-12-17T17:58:25.111Z,7.50
2018-12-17T18:00:53.227Z,7.40
2018-12-17T18:03:21.340Z,7.40
2018-12-17T18:05:49.437Z,7.40
2018-12-17T18:08:17.583Z,7.40
2018-12-17T18:10:45.684Z,7.30
2018-12-17T18:13:13.950Z,7.30
2018-12-17T18:15:42.110Z,7.40
2018-12-17T18:18:10.252Z,7.30
2018-12-17T18:20:38.402Z,7.30
2018-12-17T18:23:07.934Z,7.30
2018-12-17T18:25:36.187Z,7.30
2018-12-17T18:28:04.285Z,7.40
2018-12-17T18:30:32.413Z,7.40
2018-12-17T18:33:00.579Z,7.40
2018-12-17T18:35:28.662Z,7.30
2018-12-17T18:37:56.793Z,7.20
2018-12-17T18:40:24.909Z,7.20
2018-12-17T18:42:53.714Z,7.20
2018-12-17T18:45:21.823Z,7.10
2018-12-17T18:47:49.931Z,7.10
2018-12-17T18:50:18.042Z,7.10
2018-12-17T18:52:46.185Z,7.10
2018-12-17T18:55:14.263Z,7.00
2018-12-17T18:57:42.474Z,7.00
2018-12-17T19:00:11.079Z,7.00
2018-12-17T19:02:39.209Z,7.00
2018-12-17T19:05:07.279Z,7.00
2018-12-17T19:07:35.389Z,7.00
2018-12-17T19:10:05.163Z,7.00
2018-12-17T19:12:33.255Z,7.00
2018-12-17T19:15:01.392Z,7.00
2018-12-17T19:17:29.519Z,7.10
2018-12-17T19:19:57.590Z,7.10
2018-12-17T19:22:25.697Z,7.20
2018-12-17T19:24:53.783Z,7.20
2018-12-17T19:27:21.950Z,7.20
2018-12-17T19:29:50.048Z,7.20
2018-12-17T19:32:18.147Z,7.20
2018-12-17T19:34:46.233Z,7.30
2018-12-17T19:37:14.315Z,7.30
2018-12-17T19:39:42.433Z,7.30
2018-12-17T19:42:10.513Z,7.30
2018-12-17T19:44:38.591Z,7.30
2018-12-17T19:47:06.720Z,7.20
2018-12-17T19:49:34.783Z,7.20
2018-12-17T19:52:02.915Z,7.20
2018-12-17T19:54:31.007Z,7.10
2018-12-17T19:56:59.116Z,7.10
2018-12-17T19:59:27.209Z,7.10
2018-12-17T20:01:55.327Z,7.10
2018-12-17T20:04:23.460Z,7.10
2018-12-17T20:06:51.649Z,7.10
2018-12-17T20:09:19.718Z,7.10
2018-12-17T20:11:47.812Z,7.20
2018-12-17T20:14:15.940Z,7.20
2018-12-17T20:16:44.115Z,7.30
2018-12-17T20:19:12.239Z,7.20
2018-12-17T20:21:40.335Z,7.20
2018-12-17T20:24:08.433Z,7.20
2018-12-17T20:26:36.547Z,7.20
2018-12-17T20:29:04.674Z,7.20
2018-12-17T20:31:32.747Z,7.10
2018-12-17T20:34:00.869Z,7.20
2018-12-17T20:36:28.942Z,7.10
2018-12-17T20:38:57.091Z,7.20
2018-12-17T20:41:25.162Z,7.20
2018-12-17T20:43:53.277Z,7.20
2018-12-17T20:46:21.393Z,7.20
2018-12-17T20:48:49.543Z,7.20
2018-12-17T20:51:17.650Z,7.20
2018-12-17T20:53:45.776Z,7.20
2018-12-17T20:56:13.909Z,7.20
2018-12-17T20:58:42.013Z,7.20
2018-12-17T21:01:10.112Z,7.30
2018-12-17T21:03:38.222Z,7.30
2018-12-17T21:06:06.299Z,7.30
2018-12-17T21:08:34.428Z,7.30
2018-12-17T21:11:02.545Z,7.20
2018-12-17T21:13:30.639Z,7.20
2018-12-17T21:15:58.927Z,7.10
2018-12-17T21:18:27.018Z,7.10
2018-12-17T21:20:55.153Z,7.20
2018-12-17T21:23:23.731Z,7.20
2018-12-17T21:25:51.956Z,7.10
2018-12-17T21:28:20.053Z,7.10
2018-12-17T21:30:48.150Z,7.20
2018-12-17T21:33:16.420Z,7.20
2018-12-17T21:35:44.502Z,7.20
2018-12-17T21:38:12.852Z,7.20
2018-12-17T21:40:40.934Z,7.10
2018-12-17T21:43:09.050Z,7.10
2018-12-17T21:45:37.146Z,7.10
2018-12-17T21:48:05.265Z,7.00
2018-12-17T21:50:33.356Z,7.00
2018-12-17T21:53:01.520Z,7.00
2018-12-17T21:55:29.631Z,6.90
2018-12-17T21:58:00.025Z,6.90
2018-12-17T22:00:28.322Z,7.00
2018-12-17T22:02:56.430Z,6.90
2018-12-17T22:05:27.038Z,6.90
2018-12-17T22:07:55.117Z,6.90
2018-12-17T22:10:25.371Z,6.90
2018-12-17T22:12:53.652Z,6.90
2018-12-17T22:15:21.729Z,6.90
2018-12-17T22:17:49.803Z,6.90
2018-12-17T22:20:17.918Z,6.90
2018-12-17T22:22:46.036Z,6.90
2018-12-17T22:25:14.170Z,6.90
2018-12-17T22:27:42.244Z,7.00
2018-12-17T22:30:10.453Z,7.00
2018-12-17T22:32:38.530Z,7.00
2018-12-17T22:35:06.908Z,7.00
2018-12-17T22:37:35.021Z,7.10
2018-12-17T22:40:04.300Z,7.10
2018-12-17T22:42:32.371Z,7.10
2018-12-17T22:45:00.483Z,7.20
2018-12-17T22:47:28.587Z,7.20
2018-12-17T22:49:56.656Z,7.20
2018-12-17T22:52:24.778Z,7.20
2018-12-17T22:54:53.064Z,7.30
2018-12-17T22:57:21.121Z,7.40
2018-12-17T22:59:49.216Z,7.40
2018-12-17T23:02:17.296Z,7.40
2018-12-17T23:04:45.398Z,7.50
2018-12-17T23:07:13.486Z,7.50
2018-12-17T23:09:54.223Z,7.40
2018-12-17T23:12:34.185Z,7.40
2018-12-17T23:15:14.101Z,7.50
2018-12-17T23:17:41.796Z,7.50
2018-12-17T23:20:10.037Z,7.50
2018-12-17T23:22:38.758Z,7.60
2018-12-17T23:25:07.104Z,7.60
2018-12-17T23:27:35.171Z,7.60
2018-12-17T23:30:05.698Z,7.60
2018-12-17T23:32:34.141Z,7.70
2018-12-17T23:35:02.371Z,7.70
2018-12-17T23:37:30.433Z,7.80
2018-12-17T23:39:58.522Z,7.80
2018-12-17T23:42:28.301Z,7.70
2018-12-17T23:44:56.570Z,7.80
2018-12-17T23:47:24.667Z,7.70
2018-12-17T23:49:52.740Z,7.80
2018-12-17T23:52:20.933Z,7.80
2018-12-17T23:54:48.978Z,7.80
2018-12-17T23:57:17.068Z,7.80
2018-12-17T23:59:45.203Z,7.80
